sensor_id;sensor_type;location;lat;lon;timestamp;temperature;humidity
8633;DHT22;4354;49.832;10.746;2023-05-10T00:00:46;14.40;99.90
8633;DHT22;4354;49.832;10.746;2023-05-10T00:03:13;14.40;99.90
8633;DHT22;4354;49.832;10.746;2023-05-10T00:05:40;14.40;99.90
8633;DHT22;4354;49.832;10.746;2023-05-10T00:08:07;14.40;99.90
8633;DHT22;4354;49.832;10.746;2023-05-10T00:10:34;14.40;99.90
8633;DHT22;4354;49.832;10.746;2023-05-10T00:13:00;14.40;99.90
8633;DHT22;4354;49.832;10.746;2023-05-10T00:15:27;14.40;99.90
8633;DHT22;4354;49.832;10.746;2023-05-10T00:17:54;14.40;99.90
8633;DHT22;4354;49.832;10.746;2023-05-10T00:20:20;14.40;99.90
8633;DHT22;4354;49.832;10.746;2023-05-10T00:22:47;14.40;99.90
8633;DHT22;4354;49.832;10.746;2023-05-10T00:25:14;14.40;99.90
8633;DHT22;4354;49.832;10.746;2023-05-10T00:27:41;14.40;99.90
8633;DHT22;4354;49.832;10.746;2023-05-10T00:30:08;14.40;99.90
8633;DHT22;4354;49.832;10.746;2023-05-10T00:32:35;14.40;99.90
8633;DHT22;4354;49.832;10.746;2023-05-10T00:35:02;14.40;99.90
8633;DHT22;4354;49.832;10.746;2023-05-10T00:37:28;14.40;99.90
8633;DHT22;4354;49.832;10.746;2023-05-10T00:39:55;14.40;99.90
8633;DHT22;4354;49.832;10.746;2023-05-10T00:42:22;14.30;99.90
8633;DHT22;4354;49.832;10.746;2023-05-10T00:44:48;14.30;99.90
8633;DHT22;4354;49.832;10.746;2023-05-10T00:47:17;14.30;99.90
8633;DHT22;4354;49.832;10.746;2023-05-10T00:49:44;14.30;99.90
8633;DHT22;4354;49.832;10.746;2023-05-10T00:52:11;14.20;99.90
8633;DHT22;4354;49.832;10.746;2023-05-10T00:54:38;14.30;99.90
8633;DHT22;4354;49.832;10.746;2023-05-10T00:57:05;14.20;99.90
8633;DHT22;4354;49.832;10.746;2023-05-10T00:59:32;14.20;99.90
8633;DHT22;4354;49.832;10.746;2023-05-10T01:01:59;14.20;99.90
8633;DHT22;4354;49.832;10.746;2023-05-10T01:04:25;14.20;99.90
8633;DHT22;4354;49.832;10.746;2023-05-10T01:06:53;14.20;99.90
8633;DHT22;4354;49.832;10.746;2023-05-10T01:09:23;14.20;99.90
8633;DHT22;4354;49.832;10.746;2023-05-10T01:11:51;14.10;99.90
8633;DHT22;4354;49.832;10.746;2023-05-10T01:14:19;14.10;99.90
8633;DHT22;4354;49.832;10.746;2023-05-10T01:16:47;14.10;99.90
8633;DHT22;4354;49.832;10.746;2023-05-10T01:19:22;14.10;99.90
8633;DHT22;4354;49.832;10.746;2023-05-10T01:22:13;14.10;99.90
8633;DHT22;4354;49.832;10.746;2023-05-10T01:25:10;14.10;99.90
8633;DHT22;4354;49.832;10.746;2023-05-10T01:28:07;14.10;99.90
8633;DHT22;4354;49.832;10.746;2023-05-10T01:36:32;14.10;99.90
8633;DHT22;4354;49.832;10.746;2023-05-10T01:39:20;14.00;99.90
8633;DHT22;4354;49.832;10.746;2023-05-10T01:42:03;14.10;99.90
8633;DHT22;4354;49.832;10.746;2023-05-10T01:44:40;14.10;99.90
8633;DHT22;4354;49.832;10.746;2023-05-10T01:47:11;14.10;99.90
8633;DHT22;4354;49.832;10.746;2023-05-10T01:49:49;14.10;99.90
8633;DHT22;4354;49.832;10.746;2023-05-10T01:52:18;14.00;99.90
8633;DHT22;4354;49.832;10.746;2023-05-10T01:54:53;14.10;99.90
8633;DHT22;4354;49.832;10.746;2023-05-10T01:57:25;14.10;99.90
8633;DHT22;4354;49.832;10.746;2023-05-10T01:59:53;14.10;99.90
8633;DHT22;4354;49.832;10.746;2023-05-10T02:02:22;14.10;99.90
8633;DHT22;4354;49.832;10.746;2023-05-10T02:04:51;14.10;99.90
8633;DHT22;4354;49.832;10.746;2023-05-10T02:07:20;14.10;99.90
8633;DHT22;4354;49.832;10.746;2023-05-10T02:09:47;14.00;99.90
8633;DHT22;4354;49.832;10.746;2023-05-10T02:12:15;14.00;99.90
8633;DHT22;4354;49.832;10.746;2023-05-10T02:14:43;14.10;99.90
8633;DHT22;4354;49.832;10.746;2023-05-10T02:17:11;14.10;99.90
8633;DHT22;4354;49.832;10.746;2023-05-10T02:19:40;14.10;99.90
8633;DHT22;4354;49.832;10.746;2023-05-10T02:22:09;14.10;99.90
8633;DHT22;4354;49.832;10.746;2023-05-10T02:24:36;14.10;99.90
8633;DHT22;4354;49.832;10.746;2023-05-10T02:27:04;14.00;99.90
8633;DHT22;4354;49.832;10.746;2023-05-10T02:29:32;14.10;99.90
8633;DHT22;4354;49.832;10.746;2023-05-10T02:32:00;14.10;99.90
8633;DHT22;4354;49.832;10.746;2023-05-10T02:34:27;14.10;99.90
8633;DHT22;4354;49.832;10.746;2023-05-10T02:36:55;14.10;99.90
8633;DHT22;4354;49.832;10.746;2023-05-10T02:39:23;14.10;99.90
8633;DHT22;4354;49.832;10.746;2023-05-10T02:41:52;14.10;99.90
8633;DHT22;4354;49.832;10.746;2023-05-10T02:44:20;14.10;99.90
8633;DHT22;4354;49.832;10.746;2023-05-10T02:46:48;14.10;99.90
8633;DHT22;4354;49.832;10.746;2023-05-10T02:49:15;14.00;99.90
8633;DHT22;4354;49.832;10.746;2023-05-10T02:51:49;14.00;99.90
8633;DHT22;4354;49.832;10.746;2023-05-10T02:54:23;14.00;99.90
8633;DHT22;4354;49.832;10.746;2023-05-10T02:56:58;14.00;99.90
8633;DHT22;4354;49.832;10.746;2023-05-10T02:59:27;14.00;99.90
8633;DHT22;4354;49.832;10.746;2023-05-10T03:01:54;13.90;99.90
8633;DHT22;4354;49.832;10.746;2023-05-10T03:04:21;14.00;99.90
8633;DHT22;4354;49.832;10.746;2023-05-10T03:06:48;13.90;99.90
8633;DHT22;4354;49.832;10.746;2023-05-10T03:09:14;13.90;99.90
8633;DHT22;4354;49.832;10.746;2023-05-10T03:14:30;14.00;99.90
8633;DHT22;4354;49.832;10.746;2023-05-10T03:17:10;13.90;99.90
8633;DHT22;4354;49.832;10.746;2023-05-10T03:19:51;13.90;99.90
8633;DHT22;4354;49.832;10.746;2023-05-10T03:22:34;13.90;99.90
8633;DHT22;4354;49.832;10.746;2023-05-10T03:25:06;13.90;99.90
8633;DHT22;4354;49.832;10.746;2023-05-10T03:27:34;13.90;99.90
8633;DHT22;4354;49.832;10.746;2023-05-10T03:30:02;13.90;99.90
8633;DHT22;4354;49.832;10.746;2023-05-10T03:32:29;13.80;99.90
8633;DHT22;4354;49.832;10.746;2023-05-10T03:34:58;13.70;99.90
8633;DHT22;4354;49.832;10.746;2023-05-10T03:37:25;13.80;99.90
8633;DHT22;4354;49.832;10.746;2023-05-10T03:39:52;13.70;99.90
8633;DHT22;4354;49.832;10.746;2023-05-10T03:42:18;13.70;99.90
8633;DHT22;4354;49.832;10.746;2023-05-10T03:44:45;13.70;99.90
8633;DHT22;4354;49.832;10.746;2023-05-10T03:47:12;13.70;99.90
8633;DHT22;4354;49.832;10.746;2023-05-10T03:49:38;13.60;99.90
8633;DHT22;4354;49.832;10.746;2023-05-10T03:52:05;13.60;99.90
8633;DHT22;4354;49.832;10.746;2023-05-10T03:54:32;13.60;99.90
8633;DHT22;4354;49.832;10.746;2023-05-10T03:56:59;13.50;99.90
8633;DHT22;4354;49.832;10.746;2023-05-10T03:59:26;13.50;99.90
8633;DHT22;4354;49.832;10.746;2023-05-10T04:01:53;13.50;99.90
8633;DHT22;4354;49.832;10.746;2023-05-10T04:04:20;13.50;99.90
8633;DHT22;4354;49.832;10.746;2023-05-10T04:06:47;13.40;99.90
8633;DHT22;4354;49.832;10.746;2023-05-10T04:09:14;13.40;99.90
8633;DHT22;4354;49.832;10.746;2023-05-10T04:11:41;13.40;99.90
8633;DHT22;4354;49.832;10.746;2023-05-10T04:14:08;13.30;99.90
8633;DHT22;4354;49.832;10.746;2023-05-10T04:16:35;13.30;99.90
8633;DHT22;4354;49.832;10.746;2023-05-10T04:19:02;13.30;99.90
8633;DHT22;4354;49.832;10.746;2023-05-10T04:21:28;13.30;99.90
8633;DHT22;4354;49.832;10.746;2023-05-10T04:23:55;13.30;99.90
8633;DHT22;4354;49.832;10.746;2023-05-10T04:26:22;13.30;99.90
8633;DHT22;4354;49.832;10.746;2023-05-10T04:28:49;13.30;99.90
8633;DHT22;4354;49.832;10.746;2023-05-10T04:31:15;13.30;99.90
8633;DHT22;4354;49.832;10.746;2023-05-10T04:33:42;13.30;99.90
8633;DHT22;4354;49.832;10.746;2023-05-10T04:36:09;13.30;99.90
8633;DHT22;4354;49.832;10.746;2023-05-10T04:38:35;13.30;99.90
8633;DHT22;4354;49.832;10.746;2023-05-10T04:41:07;13.30;99.90
8633;DHT22;4354;49.832;10.746;2023-05-10T04:43:34;13.30;99.90
8633;DHT22;4354;49.832;10.746;2023-05-10T04:46:02;13.30;99.90
8633;DHT22;4354;49.832;10.746;2023-05-10T04:48:29;13.40;99.90
8633;DHT22;4354;49.832;10.746;2023-05-10T04:50:55;13.30;99.90
8633;DHT22;4354;49.832;10.746;2023-05-10T04:53:22;13.30;99.90
8633;DHT22;4354;49.832;10.746;2023-05-10T04:55:49;13.40;99.90
8633;DHT22;4354;49.832;10.746;2023-05-10T04:58:16;13.40;99.90
8633;DHT22;4354;49.832;10.746;2023-05-10T05:00:43;13.40;99.90
8633;DHT22;4354;49.832;10.746;2023-05-10T05:03:10;13.50;99.90
8633;DHT22;4354;49.832;10.746;2023-05-10T05:05:37;13.50;99.90
8633;DHT22;4354;49.832;10.746;2023-05-10T05:08:04;13.60;99.90
8633;DHT22;4354;49.832;10.746;2023-05-10T05:10:32;13.70;99.90
8633;DHT22;4354;49.832;10.746;2023-05-10T05:12:58;13.80;99.90
8633;DHT22;4354;49.832;10.746;2023-05-10T05:15:25;13.80;99.90
8633;DHT22;4354;49.832;10.746;2023-05-10T05:17:53;13.90;99.90
8633;DHT22;4354;49.832;10.746;2023-05-10T05:20:19;13.90;99.90
8633;DHT22;4354;49.832;10.746;2023-05-10T05:22:46;14.10;99.90
8633;DHT22;4354;49.832;10.746;2023-05-10T05:25:13;14.20;99.90
8633;DHT22;4354;49.832;10.746;2023-05-10T05:27:41;14.20;99.90
8633;DHT22;4354;49.832;10.746;2023-05-10T05:30:08;14.30;99.90
8633;DHT22;4354;49.832;10.746;2023-05-10T05:32:35;14.40;99.90
8633;DHT22;4354;49.832;10.746;2023-05-10T05:35:02;14.40;99.90
8633;DHT22;4354;49.832;10.746;2023-05-10T05:37:29;14.30;99.90
8633;DHT22;4354;49.832;10.746;2023-05-10T05:39:56;14.40;99.90
8633;DHT22;4354;49.832;10.746;2023-05-10T05:42:22;14.50;99.90
8633;DHT22;4354;49.832;10.746;2023-05-10T05:44:49;14.50;99.90
8633;DHT22;4354;49.832;10.746;2023-05-10T05:47:16;14.40;99.90
8633;DHT22;4354;49.832;10.746;2023-05-10T05:49:43;14.50;99.90
8633;DHT22;4354;49.832;10.746;2023-05-10T05:52:12;14.60;99.90
8633;DHT22;4354;49.832;10.746;2023-05-10T05:54:39;14.60;99.90
8633;DHT22;4354;49.832;10.746;2023-05-10T05:57:06;14.70;99.90
8633;DHT22;4354;49.832;10.746;2023-05-10T05:59:33;14.80;99.90
8633;DHT22;4354;49.832;10.746;2023-05-10T06:01:59;14.80;99.90
8633;DHT22;4354;49.832;10.746;2023-05-10T06:04:27;14.90;99.90
8633;DHT22;4354;49.832;10.746;2023-05-10T06:06:54;14.90;99.90
8633;DHT22;4354;49.832;10.746;2023-05-10T06:09:20;15.00;99.90
8633;DHT22;4354;49.832;10.746;2023-05-10T06:11:47;15.00;99.90
8633;DHT22;4354;49.832;10.746;2023-05-10T06:14:14;15.10;99.90
8633;DHT22;4354;49.832;10.746;2023-05-10T06:16:41;15.10;99.90
8633;DHT22;4354;49.832;10.746;2023-05-10T06:19:08;15.10;99.90
8633;DHT22;4354;49.832;10.746;2023-05-10T06:21:34;15.10;99.90
8633;DHT22;4354;49.832;10.746;2023-05-10T06:24:01;15.20;99.90
8633;DHT22;4354;49.832;10.746;2023-05-10T06:26:29;15.10;99.90
8633;DHT22;4354;49.832;10.746;2023-05-10T06:28:58;15.20;99.90
8633;DHT22;4354;49.832;10.746;2023-05-10T06:31:25;15.10;99.90
8633;DHT22;4354;49.832;10.746;2023-05-10T06:33:52;15.20;99.90
8633;DHT22;4354;49.832;10.746;2023-05-10T06:36:22;15.30;99.90
8633;DHT22;4354;49.832;10.746;2023-05-10T06:38:49;15.50;99.90
8633;DHT22;4354;49.832;10.746;2023-05-10T06:41:17;15.60;99.90
8633;DHT22;4354;49.832;10.746;2023-05-10T06:43:44;15.50;99.90
8633;DHT22;4354;49.832;10.746;2023-05-10T06:46:11;15.40;99.90
8633;DHT22;4354;49.832;10.746;2023-05-10T06:48:37;15.50;99.90
8633;DHT22;4354;49.832;10.746;2023-05-10T06:51:04;15.60;99.90
8633;DHT22;4354;49.832;10.746;2023-05-10T06:53:31;15.90;99.90
8633;DHT22;4354;49.832;10.746;2023-05-10T06:55:58;16.20;99.90
8633;DHT22;4354;49.832;10.746;2023-05-10T06:58:24;16.30;99.90
8633;DHT22;4354;49.832;10.746;2023-05-10T07:00:51;16.40;99.90
8633;DHT22;4354;49.832;10.746;2023-05-10T07:03:18;16.70;99.90
8633;DHT22;4354;49.832;10.746;2023-05-10T07:05:45;17.00;99.90
8633;DHT22;4354;49.832;10.746;2023-05-10T07:08:11;17.10;99.90
8633;DHT22;4354;49.832;10.746;2023-05-10T07:10:39;17.30;99.90
8633;DHT22;4354;49.832;10.746;2023-05-10T07:13:06;17.30;99.90
8633;DHT22;4354;49.832;10.746;2023-05-10T07:15:33;17.50;99.90
8633;DHT22;4354;49.832;10.746;2023-05-10T07:18:00;17.70;99.90
8633;DHT22;4354;49.832;10.746;2023-05-10T07:20:27;17.90;99.90
8633;DHT22;4354;49.832;10.746;2023-05-10T07:22:53;18.00;99.90
8633;DHT22;4354;49.832;10.746;2023-05-10T07:25:20;18.00;99.90
8633;DHT22;4354;49.832;10.746;2023-05-10T07:27:47;18.00;99.90
8633;DHT22;4354;49.832;10.746;2023-05-10T07:30:14;17.90;99.90
8633;DHT22;4354;49.832;10.746;2023-05-10T07:32:41;17.60;99.90
8633;DHT22;4354;49.832;10.746;2023-05-10T07:35:08;17.50;99.90
8633;DHT22;4354;49.832;10.746;2023-05-10T07:37:35;17.50;99.90
8633;DHT22;4354;49.832;10.746;2023-05-10T07:40:02;17.60;99.90
8633;DHT22;4354;49.832;10.746;2023-05-10T07:42:29;17.70;99.90
8633;DHT22;4354;49.832;10.746;2023-05-10T07:44:56;17.60;99.90
8633;DHT22;4354;49.832;10.746;2023-05-10T07:47:22;17.70;99.90
8633;DHT22;4354;49.832;10.746;2023-05-10T07:49:50;17.90;99.90
8633;DHT22;4354;49.832;10.746;2023-05-10T07:52:16;18.30;99.90
8633;DHT22;4354;49.832;10.746;2023-05-10T07:54:43;18.70;99.90
8633;DHT22;4354;49.832;10.746;2023-05-10T07:57:11;19.00;99.90
8633;DHT22;4354;49.832;10.746;2023-05-10T07:59:37;18.90;99.90
8633;DHT22;4354;49.832;10.746;2023-05-10T08:02:04;19.20;99.90
8633;DHT22;4354;49.832;10.746;2023-05-10T08:04:31;19.80;99.90
8633;DHT22;4354;49.832;10.746;2023-05-10T08:06:58;20.30;99.90
8633;DHT22;4354;49.832;10.746;2023-05-10T08:09:25;20.80;99.90
8633;DHT22;4354;49.832;10.746;2023-05-10T08:11:51;21.00;99.90
8633;DHT22;4354;49.832;10.746;2023-05-10T08:14:18;21.10;99.90
8633;DHT22;4354;49.832;10.746;2023-05-10T08:16:45;20.70;99.90
8633;DHT22;4354;49.832;10.746;2023-05-10T08:19:12;20.50;99.90
8633;DHT22;4354;49.832;10.746;2023-05-10T08:21:38;20.50;99.90
8633;DHT22;4354;49.832;10.746;2023-05-10T08:24:07;20.50;99.90
8633;DHT22;4354;49.832;10.746;2023-05-10T08:26:33;20.90;99.90
8633;DHT22;4354;49.832;10.746;2023-05-10T08:29:00;21.10;99.90
8633;DHT22;4354;49.832;10.746;2023-05-10T08:31:27;22.00;99.90
8633;DHT22;4354;49.832;10.746;2023-05-10T08:33:54;22.10;99.90
8633;DHT22;4354;49.832;10.746;2023-05-10T08:36:20;21.50;99.90
8633;DHT22;4354;49.832;10.746;2023-05-10T08:38:51;21.40;99.90
8633;DHT22;4354;49.832;10.746;2023-05-10T08:41:22;21.50;99.90
8633;DHT22;4354;49.832;10.746;2023-05-10T08:43:54;21.70;99.90
8633;DHT22;4354;49.832;10.746;2023-05-10T08:46:22;22.00;99.90
8633;DHT22;4354;49.832;10.746;2023-05-10T08:48:50;22.50;99.90
8633;DHT22;4354;49.832;10.746;2023-05-10T08:51:19;22.70;99.90
8633;DHT22;4354;49.832;10.746;2023-05-10T08:53:47;21.90;99.90
8633;DHT22;4354;49.832;10.746;2023-05-10T08:56:15;21.00;99.90
8633;DHT22;4354;49.832;10.746;2023-05-10T08:58:42;20.50;99.90
8633;DHT22;4354;49.832;10.746;2023-05-10T09:01:09;20.10;99.90
8633;DHT22;4354;49.832;10.746;2023-05-10T09:03:38;19.60;99.90
8633;DHT22;4354;49.832;10.746;2023-05-10T09:06:06;19.50;99.90
8633;DHT22;4354;49.832;10.746;2023-05-10T09:08:33;19.40;99.90
8633;DHT22;4354;49.832;10.746;2023-05-10T09:11:01;19.20;99.90
8633;DHT22;4354;49.832;10.746;2023-05-10T09:13:30;19.50;99.90
8633;DHT22;4354;49.832;10.746;2023-05-10T09:15:58;19.70;99.90
8633;DHT22;4354;49.832;10.746;2023-05-10T09:18:39;20.00;99.90
8633;DHT22;4354;49.832;10.746;2023-05-10T09:21:06;19.80;99.90
8633;DHT22;4354;49.832;10.746;2023-05-10T09:23:32;20.00;99.90
8633;DHT22;4354;49.832;10.746;2023-05-10T09:26:06;20.60;99.90
8633;DHT22;4354;49.832;10.746;2023-05-10T09:28:34;21.00;99.90
8633;DHT22;4354;49.832;10.746;2023-05-10T09:31:16;21.40;99.90
8633;DHT22;4354;49.832;10.746;2023-05-10T09:33:47;21.60;99.90
8633;DHT22;4354;49.832;10.746;2023-05-10T09:36:14;21.60;99.90
8633;DHT22;4354;49.832;10.746;2023-05-10T09:38:49;21.20;99.90
8633;DHT22;4354;49.832;10.746;2023-05-10T09:41:23;20.70;99.90
8633;DHT22;4354;49.832;10.746;2023-05-10T09:43:50;20.00;99.90
8633;DHT22;4354;49.832;10.746;2023-05-10T09:46:21;19.60;99.90
8633;DHT22;4354;49.832;10.746;2023-05-10T09:48:49;19.10;99.90
8633;DHT22;4354;49.832;10.746;2023-05-10T09:51:23;18.80;99.90
8633;DHT22;4354;49.832;10.746;2023-05-10T09:54:12;18.90;99.90
8633;DHT22;4354;49.832;10.746;2023-05-10T09:56:40;19.00;99.90
8633;DHT22;4354;49.832;10.746;2023-05-10T09:59:09;19.00;99.90
8633;DHT22;4354;49.832;10.746;2023-05-10T10:01:37;19.20;99.90
8633;DHT22;4354;49.832;10.746;2023-05-10T10:04:05;19.70;99.90
8633;DHT22;4354;49.832;10.746;2023-05-10T10:06:40;20.20;99.90
8633;DHT22;4354;49.832;10.746;2023-05-10T10:09:07;20.70;99.90
8633;DHT22;4354;49.832;10.746;2023-05-10T10:11:35;20.70;99.90
8633;DHT22;4354;49.832;10.746;2023-05-10T10:14:02;20.60;99.90
8633;DHT22;4354;49.832;10.746;2023-05-10T10:16:30;20.60;99.90
8633;DHT22;4354;49.832;10.746;2023-05-10T10:18:57;20.70;99.90
8633;DHT22;4354;49.832;10.746;2023-05-10T10:21:24;20.70;99.90
8633;DHT22;4354;49.832;10.746;2023-05-10T10:23:51;21.10;99.90
8633;DHT22;4354;49.832;10.746;2023-05-10T10:26:20;21.50;99.90
8633;DHT22;4354;49.832;10.746;2023-05-10T10:29:12;22.50;99.90
8633;DHT22;4354;49.832;10.746;2023-05-10T10:32:03;23.20;99.90
8633;DHT22;4354;49.832;10.746;2023-05-10T10:34:34;22.90;99.90
8633;DHT22;4354;49.832;10.746;2023-05-10T10:37:05;22.50;99.90
8633;DHT22;4354;49.832;10.746;2023-05-10T10:39:32;22.50;99.90
8633;DHT22;4354;49.832;10.746;2023-05-10T10:41:59;22.30;99.90
8633;DHT22;4354;49.832;10.746;2023-05-10T10:44:35;22.50;99.90
8633;DHT22;4354;49.832;10.746;2023-05-10T10:57:52;21.50;99.90
8633;DHT22;4354;49.832;10.746;2023-05-10T11:00:37;21.00;99.90
8633;DHT22;4354;49.832;10.746;2023-05-10T11:03:12;20.50;99.90
8633;DHT22;4354;49.832;10.746;2023-05-10T11:05:48;20.20;99.90
8633;DHT22;4354;49.832;10.746;2023-05-10T11:08:32;20.00;99.90
8633;DHT22;4354;49.832;10.746;2023-05-10T11:13:42;19.40;99.90
8633;DHT22;4354;49.832;10.746;2023-05-10T11:16:14;19.30;99.90
8633;DHT22;4354;49.832;10.746;2023-05-10T11:21:19;19.20;99.90
8633;DHT22;4354;49.832;10.746;2023-05-10T11:23:52;19.30;99.90
8633;DHT22;4354;49.832;10.746;2023-05-10T11:26:23;19.40;99.90
8633;DHT22;4354;49.832;10.746;2023-05-10T11:28:53;19.50;99.90
8633;DHT22;4354;49.832;10.746;2023-05-10T11:31:25;20.00;99.90
8633;DHT22;4354;49.832;10.746;2023-05-10T11:33:55;20.50;99.90
8633;DHT22;4354;49.832;10.746;2023-05-10T11:36:28;20.70;99.90
8633;DHT22;4354;49.832;10.746;2023-05-10T11:38:56;21.30;99.90
8633;DHT22;4354;49.832;10.746;2023-05-10T11:41:24;21.80;99.90
8633;DHT22;4354;49.832;10.746;2023-05-10T11:43:52;21.60;99.90
8633;DHT22;4354;49.832;10.746;2023-05-10T11:46:21;21.30;99.90
8633;DHT22;4354;49.832;10.746;2023-05-10T11:48:53;21.00;99.90
8633;DHT22;4354;49.832;10.746;2023-05-10T11:51:21;20.70;99.90
8633;DHT22;4354;49.832;10.746;2023-05-10T11:53:53;20.50;99.90
8633;DHT22;4354;49.832;10.746;2023-05-10T11:56:21;20.50;99.90
8633;DHT22;4354;49.832;10.746;2023-05-10T11:58:56;20.40;99.90
8633;DHT22;4354;49.832;10.746;2023-05-10T12:01:27;20.50;99.90
8633;DHT22;4354;49.832;10.746;2023-05-10T12:03:55;20.30;99.90
8633;DHT22;4354;49.832;10.746;2023-05-10T12:06:31;20.30;99.90
8633;DHT22;4354;49.832;10.746;2023-05-10T12:08:59;20.50;99.90
8633;DHT22;4354;49.832;10.746;2023-05-10T12:11:31;20.90;99.90
8633;DHT22;4354;49.832;10.746;2023-05-10T12:13:58;21.40;99.90
8633;DHT22;4354;49.832;10.746;2023-05-10T12:16:28;22.00;99.90
8633;DHT22;4354;49.832;10.746;2023-05-10T12:18:57;22.90;99.90
8633;DHT22;4354;49.832;10.746;2023-05-10T12:21:25;23.30;99.90
8633;DHT22;4354;49.832;10.746;2023-05-10T12:23:59;23.30;99.90
8633;DHT22;4354;49.832;10.746;2023-05-10T12:26:28;23.00;99.90
8633;DHT22;4354;49.832;10.746;2023-05-10T12:29:01;23.10;99.90
8633;DHT22;4354;49.832;10.746;2023-05-10T12:31:54;23.30;99.90
8633;DHT22;4354;49.832;10.746;2023-05-10T12:34:33;23.90;99.90
8633;DHT22;4354;49.832;10.746;2023-05-10T12:37:03;24.10;98.50
8633;DHT22;4354;49.832;10.746;2023-05-10T12:39:41;24.40;99.90
8633;DHT22;4354;49.832;10.746;2023-05-10T12:42:08;25.00;97.60
8633;DHT22;4354;49.832;10.746;2023-05-10T12:44:35;24.90;96.90
8633;DHT22;4354;49.832;10.746;2023-05-10T12:47:02;24.50;98.20
8633;DHT22;4354;49.832;10.746;2023-05-10T12:49:28;23.90;97.60
8633;DHT22;4354;49.832;10.746;2023-05-10T12:51:58;23.20;95.00
8633;DHT22;4354;49.832;10.746;2023-05-10T12:54:25;22.80;94.60
8633;DHT22;4354;49.832;10.746;2023-05-10T12:56:52;22.70;95.00
8633;DHT22;4354;49.832;10.746;2023-05-10T12:59:18;22.40;95.50
8633;DHT22;4354;49.832;10.746;2023-05-10T13:01:45;22.40;97.60
8633;DHT22;4354;49.832;10.746;2023-05-10T13:04:12;22.50;97.20
8633;DHT22;4354;49.832;10.746;2023-05-10T13:06:39;22.50;98.70
8633;DHT22;4354;49.832;10.746;2023-05-10T13:09:05;22.40;99.30
8633;DHT22;4354;49.832;10.746;2023-05-10T13:11:32;22.30;99.90
8633;DHT22;4354;49.832;10.746;2023-05-10T13:13:59;22.30;99.50
8633;DHT22;4354;49.832;10.746;2023-05-10T13:16:26;22.40;99.10
8633;DHT22;4354;49.832;10.746;2023-05-10T13:18:53;22.40;99.20
8633;DHT22;4354;49.832;10.746;2023-05-10T13:21:20;22.30;99.60
8633;DHT22;4354;49.832;10.746;2023-05-10T13:23:46;22.30;99.50
8633;DHT22;4354;49.832;10.746;2023-05-10T13:26:13;22.20;98.10
8633;DHT22;4354;49.832;10.746;2023-05-10T13:28:40;22.30;99.20
8633;DHT22;4354;49.832;10.746;2023-05-10T13:31:07;22.30;99.90
8633;DHT22;4354;49.832;10.746;2023-05-10T13:33:34;22.10;99.90
8633;DHT22;4354;49.832;10.746;2023-05-10T13:36:01;21.90;99.60
8633;DHT22;4354;49.832;10.746;2023-05-10T13:38:28;21.60;99.60
8633;DHT22;4354;49.832;10.746;2023-05-10T13:40:55;21.30;99.90
8633;DHT22;4354;49.832;10.746;2023-05-10T13:43:21;20.90;99.90
8633;DHT22;4354;49.832;10.746;2023-05-10T13:45:48;20.80;99.90
8633;DHT22;4354;49.832;10.746;2023-05-10T13:48:15;21.00;99.90
8633;DHT22;4354;49.832;10.746;2023-05-10T13:50:43;21.20;99.90
8633;DHT22;4354;49.832;10.746;2023-05-10T13:53:09;21.30;99.90
8633;DHT22;4354;49.832;10.746;2023-05-10T13:55:36;21.30;99.90
8633;DHT22;4354;49.832;10.746;2023-05-10T13:58:03;21.50;99.90
8633;DHT22;4354;49.832;10.746;2023-05-10T14:00:29;21.50;99.90
8633;DHT22;4354;49.832;10.746;2023-05-10T14:02:56;21.50;99.80
8633;DHT22;4354;49.832;10.746;2023-05-10T14:05:23;21.50;99.90
8633;DHT22;4354;49.832;10.746;2023-05-10T14:07:52;21.60;99.90
8633;DHT22;4354;49.832;10.746;2023-05-10T14:10:19;21.70;99.90
8633;DHT22;4354;49.832;10.746;2023-05-10T14:12:45;21.60;99.90
8633;DHT22;4354;49.832;10.746;2023-05-10T14:15:13;21.30;99.90
8633;DHT22;4354;49.832;10.746;2023-05-10T14:17:40;21.10;99.90
8633;DHT22;4354;49.832;10.746;2023-05-10T14:20:07;20.80;99.90
8633;DHT22;4354;49.832;10.746;2023-05-10T14:22:34;20.70;99.90
8633;DHT22;4354;49.832;10.746;2023-05-10T14:25:02;20.40;99.90
8633;DHT22;4354;49.832;10.746;2023-05-10T14:27:28;20.10;99.90
8633;DHT22;4354;49.832;10.746;2023-05-10T14:29:55;19.80;99.90
8633;DHT22;4354;49.832;10.746;2023-05-10T14:32:22;19.50;99.90
8633;DHT22;4354;49.832;10.746;2023-05-10T14:34:49;19.20;99.90
8633;DHT22;4354;49.832;10.746;2023-05-10T14:37:16;18.80;99.90
8633;DHT22;4354;49.832;10.746;2023-05-10T14:39:42;18.20;99.90
8633;DHT22;4354;49.832;10.746;2023-05-10T14:42:09;17.80;99.90
8633;DHT22;4354;49.832;10.746;2023-05-10T14:44:36;17.30;99.90
8633;DHT22;4354;49.832;10.746;2023-05-10T14:47:03;16.80;99.90
8633;DHT22;4354;49.832;10.746;2023-05-10T14:49:30;16.50;1.00
8633;DHT22;4354;49.832;10.746;2023-05-10T14:51:57;16.20;99.90
8633;DHT22;4354;49.832;10.746;2023-05-10T14:54:24;16.20;99.90
8633;DHT22;4354;49.832;10.746;2023-05-10T14:56:50;16.10;99.90
8633;DHT22;4354;49.832;10.746;2023-05-10T14:59:17;15.90;99.90
8633;DHT22;4354;49.832;10.746;2023-05-10T15:01:44;15.80;1.00
8633;DHT22;4354;49.832;10.746;2023-05-10T15:04:13;15.90;99.90
8633;DHT22;4354;49.832;10.746;2023-05-10T15:06:42;15.80;99.90
8633;DHT22;4354;49.832;10.746;2023-05-10T15:09:09;15.70;22.50
8633;DHT22;4354;49.832;10.746;2023-05-10T15:11:36;15.70;99.90
8633;DHT22;4354;49.832;10.746;2023-05-10T15:14:03;15.70;99.90
8633;DHT22;4354;49.832;10.746;2023-05-10T15:16:31;15.60;99.90
8633;DHT22;4354;49.832;10.746;2023-05-10T15:19:01;15.50;99.90
8633;DHT22;4354;49.832;10.746;2023-05-10T15:21:28;15.50;1.00
8633;DHT22;4354;49.832;10.746;2023-05-10T15:23:57;15.50;99.90
8633;DHT22;4354;49.832;10.746;2023-05-10T15:26:24;15.40;1.00
8633;DHT22;4354;49.832;10.746;2023-05-10T15:28:52;15.30;1.00
8633;DHT22;4354;49.832;10.746;2023-05-10T15:31:19;15.20;1.00
8633;DHT22;4354;49.832;10.746;2023-05-10T15:33:46;15.20;99.90
8633;DHT22;4354;49.832;10.746;2023-05-10T15:36:13;15.20;1.00
8633;DHT22;4354;49.832;10.746;2023-05-10T15:38:39;15.10;99.90
8633;DHT22;4354;49.832;10.746;2023-05-10T15:41:06;15.10;99.90
8633;DHT22;4354;49.832;10.746;2023-05-10T15:43:33;15.10;99.90
8633;DHT22;4354;49.832;10.746;2023-05-10T15:45:59;15.10;1.00
8633;DHT22;4354;49.832;10.746;2023-05-10T15:48:26;15.10;1.00
8633;DHT22;4354;49.832;10.746;2023-05-10T15:50:53;15.20;1.00
8633;DHT22;4354;49.832;10.746;2023-05-10T15:53:20;15.20;1.00
8633;DHT22;4354;49.832;10.746;2023-05-10T15:55:47;15.20;1.00
8633;DHT22;4354;49.832;10.746;2023-05-10T15:58:14;15.10;99.90
8633;DHT22;4354;49.832;10.746;2023-05-10T16:00:41;15.10;1.00
8633;DHT22;4354;49.832;10.746;2023-05-10T16:03:08;15.00;1.00
8633;DHT22;4354;49.832;10.746;2023-05-10T16:05:34;15.10;1.00
8633;DHT22;4354;49.832;10.746;2023-05-10T16:08:01;15.10;1.00
8633;DHT22;4354;49.832;10.746;2023-05-10T16:10:31;15.20;1.00
8633;DHT22;4354;49.832;10.746;2023-05-10T16:13:00;15.20;99.90
8633;DHT22;4354;49.832;10.746;2023-05-10T16:15:28;15.30;1.00
8633;DHT22;4354;49.832;10.746;2023-05-10T16:17:56;15.30;1.00
8633;DHT22;4354;49.832;10.746;2023-05-10T16:20:24;15.40;99.90